Key West, Florida
Current Conditions -  °F | °C
As of 8:53 AM on Sunday 21 Dec 2014 (Local Time) from KEYW Reporting Station
Clear Clear  
Wind Chill: 77°   Ceiling: Unl
Heat Index: 79°   Visibility: 10mi
Dew Point: 69°   Wind: 12mph
Humidity: 76%   Direction: 120°ESE
Pressure: 30.08"   Gusts: NA
Location:  24.55°N, 81.8°W
Report Text: KEYW 211353Z 12010KT 10SM CLR 25/21 A3008 RMK AO2 SLP185 T02500206
Loading
Personal Weather Stations






























Interactive Weather Map New forecast layout! Learn more

10-Day Weather Forecast

Advertisements
Track Severe Weather on mobile